Storrs, CT (06268)

7:01 PM EDT on March 28, 2017 (GMT -0400)
Gurleyville Green | | Change Station

Elev 354 ft 41.82 °N, 72.22 °W | Updated 3 seconds ago

Rain
Rain
41.4 °F
Feels Like 41 °F
N
0.0
Wind Variable Wind from WSW
Gusts 1.0 mph

Today
High -- | Low -- °F
--% Chance of Precip.
Yesterday
High -- | Low -- °F
Precip. -- in
Pressure 29.94 in
Visibility 8.0 miles
Clouds Overcast 800 ft
Windchill 41 °F
Dew Point 41 °F
Humidity 97%
Rainfall 0.14 in
Snow Depth Not available.
6:38 AM 7:10 PM
New Moon, 1% visible
METAR KIJD 282252Z AUTO 02004KT 8SM -RA OVC008 07/06 A2993 RMK AO2 CIG 006V009 SLP137 P0001 T00670056
Pressure 29.94 in
Visibility 8.0 miles
Clouds Overcast 800 ft
Windchill 41 °F
Dew Point 41 °F
Humidity 97%
Rainfall 0.14 in
Snow Depth Not available.
6:38 AM 7:10 PM
New Moon, 1% visible
METAR KIJD 282252Z AUTO 02004KT 8SM -RA OVC008 07/06 A2993 RMK AO2 CIG 006V009 SLP137 P0001 T00670056

Get Severe Weather Alerts

Thanks for signing up!

Be on the lookout for a verification email in your inbox.

You'll start receiving the daily forecast at 8 AM.

×

10-Day Weather Forecast

Almanac

Astronomy

Mar. 28, 2017 Rise Set
Actual Time
Civil Twilight
Nautical Twilight
Astronomical Twilight
Moon
Length of Visible Light
Length of Day
Tomorrow will be .
, % of the Moon is Illuminated

Today's Extremes

State Highs State Lows

Community

WunderPhotos

Upload Photos

1,962,540 photos uploaded!

WunderBlog® & News

Nearby

Air Quality

  Air Quality AQ Index Pollutant
Not available.

Snow Depth

Station Depth Elevation

Earthquake Activity

City Distance Mag. Time & Date
Minimum magnitude displayed is 2.5.

Earthquake Activity

City Distance Mag. Time & Date
Minimum magnitude displayed is 2.5.

Coastal Water Temperatures

Place Temperature

Stations

Nearby Weather Stations

Station Location Temp. Windchill Dew Point Humidity Wind Precip. Elev Updated Type
                   

Watches & Warnings

There are currently no watches in effect.